sensor_id;sensor_type;location;lat;lon;timestamp;temperature;humidity
9271;DHT22;4673;53.458;9.940;2022-10-16T00:00:18;13.00;98.30
9271;DHT22;4673;53.458;9.940;2022-10-16T00:02:44;13.00;97.80
9271;DHT22;4673;53.458;9.940;2022-10-16T00:05:10;13.00;97.50
9271;DHT22;4673;53.458;9.940;2022-10-16T00:07:35;13.10;97.10
9271;DHT22;4673;53.458;9.940;2022-10-16T00:10:01;13.00;96.50
9271;DHT22;4673;53.458;9.940;2022-10-16T00:12:26;13.10;96.30
9271;DHT22;4673;53.458;9.940;2022-10-16T00:14:52;13.00;95.80
9271;DHT22;4673;53.458;9.940;2022-10-16T00:17:18;13.00;95.60
9271;DHT22;4673;53.458;9.940;2022-10-16T00:19:44;13.00;95.30
9271;DHT22;4673;53.458;9.940;2022-10-16T00:22:09;13.00;94.80
9271;DHT22;4673;53.458;9.940;2022-10-16T00:24:36;13.00;94.30
9271;DHT22;4673;53.458;9.940;2022-10-16T00:27:02;13.10;94.30
9271;DHT22;4673;53.458;9.940;2022-10-16T00:29:27;13.00;93.90
9271;DHT22;4673;53.458;9.940;2022-10-16T00:31:53;13.00;93.60
9271;DHT22;4673;53.458;9.940;2022-10-16T00:34:18;13.00;93.20
9271;DHT22;4673;53.458;9.940;2022-10-16T00:36:44;13.00;93.00
9271;DHT22;4673;53.458;9.940;2022-10-16T00:39:09;13.00;92.70
9271;DHT22;4673;53.458;9.940;2022-10-16T00:41:35;12.90;92.40
9271;DHT22;4673;53.458;9.940;2022-10-16T00:44:03;12.90;92.30
9271;DHT22;4673;53.458;9.940;2022-10-16T00:46:48;12.80;92.10
9271;DHT22;4673;53.458;9.940;2022-10-16T00:49:17;12.80;92.10
9271;DHT22;4673;53.458;9.940;2022-10-16T00:51:53;12.90;92.20
9271;DHT22;4673;53.458;9.940;2022-10-16T00:54:25;12.90;92.00
9271;DHT22;4673;53.458;9.940;2022-10-16T00:56:53;12.90;91.90
9271;DHT22;4673;53.458;9.940;2022-10-16T00:59:25;12.90;91.90
9271;DHT22;4673;53.458;9.940;2022-10-16T01:01:52;12.90;91.90
9271;DHT22;4673;53.458;9.940;2022-10-16T01:04:18;12.90;91.90
9271;DHT22;4673;53.458;9.940;2022-10-16T01:09:29;12.90;91.90
9271;DHT22;4673;53.458;9.940;2022-10-16T01:12:12;12.90;92.00
9271;DHT22;4673;53.458;9.940;2022-10-16T01:14:53;12.90;91.90
9271;DHT22;4673;53.458;9.940;2022-10-16T01:17:36;12.80;91.70
9271;DHT22;4673;53.458;9.940;2022-10-16T01:20:08;12.80;91.70
9271;DHT22;4673;53.458;9.940;2022-10-16T01:22:50;12.70;91.50
9271;DHT22;4673;53.458;9.940;2022-10-16T01:25:59;12.70;91.50
9271;DHT22;4673;53.458;9.940;2022-10-16T01:28:35;12.60;91.30
9271;DHT22;4673;53.458;9.940;2022-10-16T01:31:03;12.60;91.30
9271;DHT22;4673;53.458;9.940;2022-10-16T01:34:05;12.50;91.40
9271;DHT22;4673;53.458;9.940;2022-10-16T01:36:27;12.50;91.50
9271;DHT22;4673;53.458;9.940;2022-10-16T01:38:57;12.40;91.40
9271;DHT22;4673;53.458;9.940;2022-10-16T01:41:33;12.40;91.40
9271;DHT22;4673;53.458;9.940;2022-10-16T01:44:26;12.40;91.50
9271;DHT22;4673;53.458;9.940;2022-10-16T01:46:54;12.40;91.70
9271;DHT22;4673;53.458;9.940;2022-10-16T01:49:22;12.30;91.70
9271;DHT22;4673;53.458;9.940;2022-10-16T01:51:52;12.30;91.90
9271;DHT22;4673;53.458;9.940;2022-10-16T01:54:20;12.20;91.80
9271;DHT22;4673;53.458;9.940;2022-10-16T01:56:49;12.20;91.90
9271;DHT22;4673;53.458;9.940;2022-10-16T01:59:20;12.20;92.00
9271;DHT22;4673;53.458;9.940;2022-10-16T02:01:52;12.20;92.10
9271;DHT22;4673;53.458;9.940;2022-10-16T02:04:33;12.20;92.00
9271;DHT22;4673;53.458;9.940;2022-10-16T02:06:59;12.20;92.10
9271;DHT22;4673;53.458;9.940;2022-10-16T02:09:26;12.30;92.30
9271;DHT22;4673;53.458;9.940;2022-10-16T02:11:54;12.20;92.00
9271;DHT22;4673;53.458;9.940;2022-10-16T02:14:21;12.20;92.00
9271;DHT22;4673;53.458;9.940;2022-10-16T02:16:50;12.20;92.20
9271;DHT22;4673;53.458;9.940;2022-10-16T02:19:17;12.20;92.10
9271;DHT22;4673;53.458;9.940;2022-10-16T02:21:51;12.10;92.00
9271;DHT22;4673;53.458;9.940;2022-10-16T02:24:43;12.10;92.20
9271;DHT22;4673;53.458;9.940;2022-10-16T02:32:35;12.00;92.20
9271;DHT22;4673;53.458;9.940;2022-10-16T02:35:01;12.00;92.20
9271;DHT22;4673;53.458;9.940;2022-10-16T02:37:27;12.00;92.10
9271;DHT22;4673;53.458;9.940;2022-10-16T02:39:55;12.00;91.90
9271;DHT22;4673;53.458;9.940;2022-10-16T02:42:21;11.90;92.10
9271;DHT22;4673;53.458;9.940;2022-10-16T02:44:52;11.90;92.10
9271;DHT22;4673;53.458;9.940;2022-10-16T02:47:18;11.90;92.40
9271;DHT22;4673;53.458;9.940;2022-10-16T02:49:43;11.80;92.20
9271;DHT22;4673;53.458;9.940;2022-10-16T02:52:09;11.80;92.10
9271;DHT22;4673;53.458;9.940;2022-10-16T02:54:34;11.80;92.20
9271;DHT22;4673;53.458;9.940;2022-10-16T02:57:00;11.90;92.40
9271;DHT22;4673;53.458;9.940;2022-10-16T02:59:26;11.60;92.40
9271;DHT22;4673;53.458;9.940;2022-10-16T03:01:51;11.60;92.60
9271;DHT22;4673;53.458;9.940;2022-10-16T03:04:17;11.60;92.80
9271;DHT22;4673;53.458;9.940;2022-10-16T03:06:42;11.50;92.90
9271;DHT22;4673;53.458;9.940;2022-10-16T03:09:08;11.50;93.20
9271;DHT22;4673;53.458;9.940;2022-10-16T03:11:34;11.40;93.10
9271;DHT22;4673;53.458;9.940;2022-10-16T03:13:59;11.40;93.30
9271;DHT22;4673;53.458;9.940;2022-10-16T03:16:25;11.30;93.40
9271;DHT22;4673;53.458;9.940;2022-10-16T03:18:51;11.30;93.40
9271;DHT22;4673;53.458;9.940;2022-10-16T03:21:16;11.20;93.60
9271;DHT22;4673;53.458;9.940;2022-10-16T03:23:42;11.20;93.80
9271;DHT22;4673;53.458;9.940;2022-10-16T03:26:07;11.20;93.90
9271;DHT22;4673;53.458;9.940;2022-10-16T03:28:33;11.20;94.00
9271;DHT22;4673;53.458;9.940;2022-10-16T03:30:59;11.20;94.20
9271;DHT22;4673;53.458;9.940;2022-10-16T03:33:24;11.10;94.30
9271;DHT22;4673;53.458;9.940;2022-10-16T03:35:54;11.10;94.50
9271;DHT22;4673;53.458;9.940;2022-10-16T03:38:20;11.20;94.60
9271;DHT22;4673;53.458;9.940;2022-10-16T03:40:46;11.10;94.80
9271;DHT22;4673;53.458;9.940;2022-10-16T03:43:12;11.20;94.90
9271;DHT22;4673;53.458;9.940;2022-10-16T03:45:37;11.20;95.00
9271;DHT22;4673;53.458;9.940;2022-10-16T03:48:03;11.20;95.00
9271;DHT22;4673;53.458;9.940;2022-10-16T03:50:29;11.10;95.10
9271;DHT22;4673;53.458;9.940;2022-10-16T03:52:55;11.10;95.20
9271;DHT22;4673;53.458;9.940;2022-10-16T03:55:21;11.20;95.40
9271;DHT22;4673;53.458;9.940;2022-10-16T03:57:46;11.20;95.40
9271;DHT22;4673;53.458;9.940;2022-10-16T04:00:12;11.30;95.60
9271;DHT22;4673;53.458;9.940;2022-10-16T04:02:38;11.20;95.30
9271;DHT22;4673;53.458;9.940;2022-10-16T04:05:04;11.30;95.40
9271;DHT22;4673;53.458;9.940;2022-10-16T04:07:29;11.30;95.30
9271;DHT22;4673;53.458;9.940;2022-10-16T04:09:55;11.30;95.30
9271;DHT22;4673;53.458;9.940;2022-10-16T04:12:22;11.20;95.20
9271;DHT22;4673;53.458;9.940;2022-10-16T04:14:48;11.20;95.10
9271;DHT22;4673;53.458;9.940;2022-10-16T04:17:13;11.20;95.10
9271;DHT22;4673;53.458;9.940;2022-10-16T04:19:39;11.20;95.00
9271;DHT22;4673;53.458;9.940;2022-10-16T04:22:04;11.20;94.90
9271;DHT22;4673;53.458;9.940;2022-10-16T04:24:30;11.20;95.00
9271;DHT22;4673;53.458;9.940;2022-10-16T04:26:55;11.20;95.20
9271;DHT22;4673;53.458;9.940;2022-10-16T04:29:21;11.20;95.20
9271;DHT22;4673;53.458;9.940;2022-10-16T04:31:47;11.20;95.20
9271;DHT22;4673;53.458;9.940;2022-10-16T04:34:12;11.20;95.30
9271;DHT22;4673;53.458;9.940;2022-10-16T04:36:38;11.20;95.30
9271;DHT22;4673;53.458;9.940;2022-10-16T04:39:04;11.20;95.30
9271;DHT22;4673;53.458;9.940;2022-10-16T04:41:29;11.20;95.20
9271;DHT22;4673;53.458;9.940;2022-10-16T04:43:55;11.20;95.30
9271;DHT22;4673;53.458;9.940;2022-10-16T04:46:20;11.20;95.30
9271;DHT22;4673;53.458;9.940;2022-10-16T04:48:46;11.20;95.40
9271;DHT22;4673;53.458;9.940;2022-10-16T04:51:12;11.20;95.40
9271;DHT22;4673;53.458;9.940;2022-10-16T04:53:38;11.20;95.60
9271;DHT22;4673;53.458;9.940;2022-10-16T04:56:04;11.20;95.70
9271;DHT22;4673;53.458;9.940;2022-10-16T04:58:29;11.10;95.70
9271;DHT22;4673;53.458;9.940;2022-10-16T05:00:55;11.10;95.80
9271;DHT22;4673;53.458;9.940;2022-10-16T05:03:20;11.10;95.90
9271;DHT22;4673;53.458;9.940;2022-10-16T05:05:46;11.10;96.20
9271;DHT22;4673;53.458;9.940;2022-10-16T05:08:13;11.20;96.20
9271;DHT22;4673;53.458;9.940;2022-10-16T05:10:41;11.10;96.20
9271;DHT22;4673;53.458;9.940;2022-10-16T05:13:07;11.10;96.30
9271;DHT22;4673;53.458;9.940;2022-10-16T05:15:33;11.10;96.40
9271;DHT22;4673;53.458;9.940;2022-10-16T05:17:58;11.10;96.40
9271;DHT22;4673;53.458;9.940;2022-10-16T05:20:24;11.10;96.40
9271;DHT22;4673;53.458;9.940;2022-10-16T05:22:50;11.10;96.50
9271;DHT22;4673;53.458;9.940;2022-10-16T05:25:15;11.10;96.70
9271;DHT22;4673;53.458;9.940;2022-10-16T05:27:41;11.10;96.70
9271;DHT22;4673;53.458;9.940;2022-10-16T05:30:07;11.10;96.70
9271;DHT22;4673;53.458;9.940;2022-10-16T05:32:33;11.10;96.70
9271;DHT22;4673;53.458;9.940;2022-10-16T05:34:58;11.10;96.70
9271;DHT22;4673;53.458;9.940;2022-10-16T05:37:26;11.10;96.70
9271;DHT22;4673;53.458;9.940;2022-10-16T05:39:52;11.10;96.70
9271;DHT22;4673;53.458;9.940;2022-10-16T05:42:18;11.10;96.70
9271;DHT22;4673;53.458;9.940;2022-10-16T05:44:44;11.10;96.70
9271;DHT22;4673;53.458;9.940;2022-10-16T05:47:10;11.00;96.70
9271;DHT22;4673;53.458;9.940;2022-10-16T05:49:37;11.00;96.80
9271;DHT22;4673;53.458;9.940;2022-10-16T05:52:03;11.00;96.80
9271;DHT22;4673;53.458;9.940;2022-10-16T05:54:28;11.10;97.00
9271;DHT22;4673;53.458;9.940;2022-10-16T05:56:54;11.10;96.90
9271;DHT22;4673;53.458;9.940;2022-10-16T05:59:19;11.00;96.90
9271;DHT22;4673;53.458;9.940;2022-10-16T06:01:45;11.10;97.10
9271;DHT22;4673;53.458;9.940;2022-10-16T06:04:11;11.10;97.30
9271;DHT22;4673;53.458;9.940;2022-10-16T06:06:36;11.10;97.30
9271;DHT22;4673;53.458;9.940;2022-10-16T06:09:03;11.10;97.30
9271;DHT22;4673;53.458;9.940;2022-10-16T06:11:30;11.10;97.30
9271;DHT22;4673;53.458;9.940;2022-10-16T06:13:58;11.20;97.40
9271;DHT22;4673;53.458;9.940;2022-10-16T06:16:27;11.20;97.20
9271;DHT22;4673;53.458;9.940;2022-10-16T06:18:53;11.20;97.20
9271;DHT22;4673;53.458;9.940;2022-10-16T06:21:22;11.20;97.40
9271;DHT22;4673;53.458;9.940;2022-10-16T06:23:50;11.20;97.20
9271;DHT22;4673;53.458;9.940;2022-10-16T06:26:18;11.10;97.20
9271;DHT22;4673;53.458;9.940;2022-10-16T06:28:44;11.10;97.40
9271;DHT22;4673;53.458;9.940;2022-10-16T06:31:11;11.10;97.40
9271;DHT22;4673;53.458;9.940;2022-10-16T06:33:37;11.20;97.50
9271;DHT22;4673;53.458;9.940;2022-10-16T06:36:08;11.20;97.50
9271;DHT22;4673;53.458;9.940;2022-10-16T06:38:35;11.20;97.60
9271;DHT22;4673;53.458;9.940;2022-10-16T06:41:01;11.20;97.70
9271;DHT22;4673;53.458;9.940;2022-10-16T06:43:29;11.20;97.80
9271;DHT22;4673;53.458;9.940;2022-10-16T06:45:59;11.40;98.20
9271;DHT22;4673;53.458;9.940;2022-10-16T06:48:25;11.50;98.20
9271;DHT22;4673;53.458;9.940;2022-10-16T06:51:05;11.50;98.20
9271;DHT22;4673;53.458;9.940;2022-10-16T06:53:34;11.60;98.10
9271;DHT22;4673;53.458;9.940;2022-10-16T06:56:10;11.70;98.30
9271;DHT22;4673;53.458;9.940;2022-10-16T06:58:36;11.80;98.30
9271;DHT22;4673;53.458;9.940;2022-10-16T07:01:03;11.90;98.40
9271;DHT22;4673;53.458;9.940;2022-10-16T07:03:29;12.00;98.20
9271;DHT22;4673;53.458;9.940;2022-10-16T07:05:54;12.00;98.00
9271;DHT22;4673;53.458;9.940;2022-10-16T07:08:20;12.10;98.00
9271;DHT22;4673;53.458;9.940;2022-10-16T07:10:45;12.30;98.10
9271;DHT22;4673;53.458;9.940;2022-10-16T07:13:11;12.50;98.20
9271;DHT22;4673;53.458;9.940;2022-10-16T07:15:40;12.70;98.00
9271;DHT22;4673;53.458;9.940;2022-10-16T07:18:06;12.80;97.30
9271;DHT22;4673;53.458;9.940;2022-10-16T07:20:31;13.00;96.70
9271;DHT22;4673;53.458;9.940;2022-10-16T07:22:57;13.10;96.20
9271;DHT22;4673;53.458;9.940;2022-10-16T07:25:23;13.20;95.60
9271;DHT22;4673;53.458;9.940;2022-10-16T07:27:48;13.30;95.10
9271;DHT22;4673;53.458;9.940;2022-10-16T07:30:14;13.40;94.70
9271;DHT22;4673;53.458;9.940;2022-10-16T07:32:39;13.40;94.20
9271;DHT22;4673;53.458;9.940;2022-10-16T07:35:05;13.40;93.70
9271;DHT22;4673;53.458;9.940;2022-10-16T07:37:31;13.50;93.40
9271;DHT22;4673;53.458;9.940;2022-10-16T07:39:57;13.50;93.30
9271;DHT22;4673;53.458;9.940;2022-10-16T07:42:22;13.50;93.00
9271;DHT22;4673;53.458;9.940;2022-10-16T07:44:48;13.50;92.80
9271;DHT22;4673;53.458;9.940;2022-10-16T07:47:14;13.60;92.60
9271;DHT22;4673;53.458;9.940;2022-10-16T07:49:39;13.70;92.60
9271;DHT22;4673;53.458;9.940;2022-10-16T07:52:05;13.90;92.00
9271;DHT22;4673;53.458;9.940;2022-10-16T07:54:30;14.10;91.50
9271;DHT22;4673;53.458;9.940;2022-10-16T07:56:56;14.30;90.80
9271;DHT22;4673;53.458;9.940;2022-10-16T07:59:21;14.40;89.30
9271;DHT22;4673;53.458;9.940;2022-10-16T08:01:49;14.50;89.00
9271;DHT22;4673;53.458;9.940;2022-10-16T08:04:14;14.60;88.50
9271;DHT22;4673;53.458;9.940;2022-10-16T08:06:40;14.60;88.20
9271;DHT22;4673;53.458;9.940;2022-10-16T08:09:07;14.70;87.70
9271;DHT22;4673;53.458;9.940;2022-10-16T08:11:33;14.80;87.20
9271;DHT22;4673;53.458;9.940;2022-10-16T08:13:59;14.80;86.50
9271;DHT22;4673;53.458;9.940;2022-10-16T08:16:25;14.80;86.30
9271;DHT22;4673;53.458;9.940;2022-10-16T08:18:50;14.70;86.00
9271;DHT22;4673;53.458;9.940;2022-10-16T08:21:19;14.60;85.60
9271;DHT22;4673;53.458;9.940;2022-10-16T08:23:45;14.60;85.80
9271;DHT22;4673;53.458;9.940;2022-10-16T08:26:11;14.50;86.10
9271;DHT22;4673;53.458;9.940;2022-10-16T08:28:37;14.50;86.30
9271;DHT22;4673;53.458;9.940;2022-10-16T08:31:12;14.50;86.40
9271;DHT22;4673;53.458;9.940;2022-10-16T08:33:39;14.60;86.40
9271;DHT22;4673;53.458;9.940;2022-10-16T08:36:06;14.60;86.30
9271;DHT22;4673;53.458;9.940;2022-10-16T08:38:33;14.70;86.00
9271;DHT22;4673;53.458;9.940;2022-10-16T08:41:19;14.80;85.50
9271;DHT22;4673;53.458;9.940;2022-10-16T08:44:08;14.80;85.20
9271;DHT22;4673;53.458;9.940;2022-10-16T08:47:17;14.90;85.40
9271;DHT22;4673;53.458;9.940;2022-10-16T08:49:55;15.00;84.40
9271;DHT22;4673;53.458;9.940;2022-10-16T08:52:21;15.10;84.40
9271;DHT22;4673;53.458;9.940;2022-10-16T08:54:51;15.20;84.50
9271;DHT22;4673;53.458;9.940;2022-10-16T08:57:22;15.20;84.20
9271;DHT22;4673;53.458;9.940;2022-10-16T08:59:48;15.40;84.10
9271;DHT22;4673;53.458;9.940;2022-10-16T09:08:04;15.60;82.40
9271;DHT22;4673;53.458;9.940;2022-10-16T09:15:58;15.70;80.80
9271;DHT22;4673;53.458;9.940;2022-10-16T09:21:18;15.90;80.70
9271;DHT22;4673;53.458;9.940;2022-10-16T09:23:45;15.90;80.70
9271;DHT22;4673;53.458;9.940;2022-10-16T09:26:13;15.90;80.20
9271;DHT22;4673;53.458;9.940;2022-10-16T09:28:39;16.00;79.30
9271;DHT22;4673;53.458;9.940;2022-10-16T09:31:05;16.00;79.20
9271;DHT22;4673;53.458;9.940;2022-10-16T09:33:35;16.00;78.30
9271;DHT22;4673;53.458;9.940;2022-10-16T09:36:03;16.00;77.70
9271;DHT22;4673;53.458;9.940;2022-10-16T09:38:33;16.00;77.40
9271;DHT22;4673;53.458;9.940;2022-10-16T09:41:02;16.00;77.30
9271;DHT22;4673;53.458;9.940;2022-10-16T09:43:40;16.00;77.40
9271;DHT22;4673;53.458;9.940;2022-10-16T09:46:25;16.00;77.60
9271;DHT22;4673;53.458;9.940;2022-10-16T09:49:05;16.00;76.90
9271;DHT22;4673;53.458;9.940;2022-10-16T09:51:33;16.00;76.40
9271;DHT22;4673;53.458;9.940;2022-10-16T09:54:02;15.90;76.90
9271;DHT22;4673;53.458;9.940;2022-10-16T09:56:37;15.90;77.20
9271;DHT22;4673;53.458;9.940;2022-10-16T09:59:15;15.90;77.00
9271;DHT22;4673;53.458;9.940;2022-10-16T10:01:44;16.00;77.10
9271;DHT22;4673;53.458;9.940;2022-10-16T10:04:11;16.00;76.50
9271;DHT22;4673;53.458;9.940;2022-10-16T10:06:42;16.10;76.50
9271;DHT22;4673;53.458;9.940;2022-10-16T10:14:40;16.20;76.40
9271;DHT22;4673;53.458;9.940;2022-10-16T10:17:18;16.30;76.30
9271;DHT22;4673;53.458;9.940;2022-10-16T10:19:54;16.30;76.20
9271;DHT22;4673;53.458;9.940;2022-10-16T10:22:39;16.40;75.90
9271;DHT22;4673;53.458;9.940;2022-10-16T10:28:01;16.50;74.30
9271;DHT22;4673;53.458;9.940;2022-10-16T10:30:50;16.50;73.50
9271;DHT22;4673;53.458;9.940;2022-10-16T10:33:46;16.50;73.60
9271;DHT22;4673;53.458;9.940;2022-10-16T10:39:40;16.60;73.20
9271;DHT22;4673;53.458;9.940;2022-10-16T10:42:03;16.70;72.80
9271;DHT22;4673;53.458;9.940;2022-10-16T10:45:00;16.80;71.90
9271;DHT22;4673;53.458;9.940;2022-10-16T10:52:58;17.00;69.40
9271;DHT22;4673;53.458;9.940;2022-10-16T10:55:43;17.10;69.00
9271;DHT22;4673;53.458;9.940;2022-10-16T11:01:16;17.40;68.80
9271;DHT22;4673;53.458;9.940;2022-10-16T11:06:30;17.50;67.30
9271;DHT22;4673;53.458;9.940;2022-10-16T11:09:15;17.40;67.00
9271;DHT22;4673;53.458;9.940;2022-10-16T11:12:13;17.40;67.20
9271;DHT22;4673;53.458;9.940;2022-10-16T11:14:48;17.40;66.90
9271;DHT22;4673;53.458;9.940;2022-10-16T11:17:19;17.40;67.40
9271;DHT22;4673;53.458;9.940;2022-10-16T11:22:38;17.30;66.10
9271;DHT22;4673;53.458;9.940;2022-10-16T11:27:50;17.50;66.50
9271;DHT22;4673;53.458;9.940;2022-10-16T11:30:21;17.50;65.80
9271;DHT22;4673;53.458;9.940;2022-10-16T11:40:54;18.00;64.00
9271;DHT22;4673;53.458;9.940;2022-10-16T11:43:32;18.00;63.40
9271;DHT22;4673;53.458;9.940;2022-10-16T11:46:07;18.10;63.50
9271;DHT22;4673;53.458;9.940;2022-10-16T11:49:00;18.10;63.30
9271;DHT22;4673;53.458;9.940;2022-10-16T11:57:08;18.10;62.40
9271;DHT22;4673;53.458;9.940;2022-10-16T11:59:52;18.10;61.30
9271;DHT22;4673;53.458;9.940;2022-10-16T12:02:40;18.20;61.40
9271;DHT22;4673;53.458;9.940;2022-10-16T12:05:20;18.20;61.40
9271;DHT22;4673;53.458;9.940;2022-10-16T12:10:27;18.20;61.10
9271;DHT22;4673;53.458;9.940;2022-10-16T12:12:53;18.30;61.00
9271;DHT22;4673;53.458;9.940;2022-10-16T12:15:25;18.40;60.20
9271;DHT22;4673;53.458;9.940;2022-10-16T12:17:52;18.60;60.00
9271;DHT22;4673;53.458;9.940;2022-10-16T12:22:54;18.80;58.60
9271;DHT22;4673;53.458;9.940;2022-10-16T12:28:00;18.60;58.50
9271;DHT22;4673;53.458;9.940;2022-10-16T12:30:27;18.60;59.10
9271;DHT22;4673;53.458;9.940;2022-10-16T12:32:56;18.50;59.30
9271;DHT22;4673;53.458;9.940;2022-10-16T12:35:25;18.40;59.30
9271;DHT22;4673;53.458;9.940;2022-10-16T12:37:52;18.20;59.00
9271;DHT22;4673;53.458;9.940;2022-10-16T12:40:30;17.90;59.60
9271;DHT22;4673;53.458;9.940;2022-10-16T12:42:57;17.60;60.40
9271;DHT22;4673;53.458;9.940;2022-10-16T12:47:53;17.30;61.60
9271;DHT22;4673;53.458;9.940;2022-10-16T12:50:38;17.10;62.40
9271;DHT22;4673;53.458;9.940;2022-10-16T12:53:21;17.00;62.20
9271;DHT22;4673;53.458;9.940;2022-10-16T13:04:30;17.10;62.30
9271;DHT22;4673;53.458;9.940;2022-10-16T13:07:23;17.10;62.70
9271;DHT22;4673;53.458;9.940;2022-10-16T13:13:00;16.90;63.20
9271;DHT22;4673;53.458;9.940;2022-10-16T13:20:56;16.40;64.70
9271;DHT22;4673;53.458;9.940;2022-10-16T13:28:52;16.10;65.00
9271;DHT22;4673;53.458;9.940;2022-10-16T13:31:22;16.10;65.30
9271;DHT22;4673;53.458;9.940;2022-10-16T13:33:55;16.10;65.50
9271;DHT22;4673;53.458;9.940;2022-10-16T13:36:26;16.10;65.90
9271;DHT22;4673;53.458;9.940;2022-10-16T13:39:25;16.00;65.80
9271;DHT22;4673;53.458;9.940;2022-10-16T13:42:26;16.00;65.60
9271;DHT22;4673;53.458;9.940;2022-10-16T13:44:54;16.00;65.70
9271;DHT22;4673;53.458;9.940;2022-10-16T13:47:29;16.00;66.20
9271;DHT22;4673;53.458;9.940;2022-10-16T13:50:09;16.20;65.80
9271;DHT22;4673;53.458;9.940;2022-10-16T13:52:36;16.30;65.70
9271;DHT22;4673;53.458;9.940;2022-10-16T13:55:04;16.50;64.60
9271;DHT22;4673;53.458;9.940;2022-10-16T13:57:30;16.60;64.10
9271;DHT22;4673;53.458;9.940;2022-10-16T13:59:55;16.60;63.10
9271;DHT22;4673;53.458;9.940;2022-10-16T14:02:31;16.60;63.10
9271;DHT22;4673;53.458;9.940;2022-10-16T14:05:01;16.70;62.20
9271;DHT22;4673;53.458;9.940;2022-10-16T14:07:29;16.70;61.80
9271;DHT22;4673;53.458;9.940;2022-10-16T14:10:02;16.60;61.60
9271;DHT22;4673;53.458;9.940;2022-10-16T14:12:29;16.50;61.80
9271;DHT22;4673;53.458;9.940;2022-10-16T14:14:55;16.50;62.20
9271;DHT22;4673;53.458;9.940;2022-10-16T14:17:26;16.50;62.40
9271;DHT22;4673;53.458;9.940;2022-10-16T14:19:56;16.50;62.50
9271;DHT22;4673;53.458;9.940;2022-10-16T14:22:36;16.50;62.60
9271;DHT22;4673;53.458;9.940;2022-10-16T14:25:29;16.50;62.90
9271;DHT22;4673;53.458;9.940;2022-10-16T14:30:28;16.50;62.30
9271;DHT22;4673;53.458;9.940;2022-10-16T14:33:02;16.50;62.60
9271;DHT22;4673;53.458;9.940;2022-10-16T14:37:55;16.50;62.30
9271;DHT22;4673;53.458;9.940;2022-10-16T14:40:26;16.50;62.00
9271;DHT22;4673;53.458;9.940;2022-10-16T14:42:53;16.50;62.30
9271;DHT22;4673;53.458;9.940;2022-10-16T14:45:21;16.40;62.40
9271;DHT22;4673;53.458;9.940;2022-10-16T14:47:58;16.40;62.10
9271;DHT22;4673;53.458;9.940;2022-10-16T14:50:25;16.40;62.30
9271;DHT22;4673;53.458;9.940;2022-10-16T14:52:51;16.50;62.60
9271;DHT22;4673;53.458;9.940;2022-10-16T14:55:17;16.40;62.30
9271;DHT22;4673;53.458;9.940;2022-10-16T14:57:44;16.40;62.30
9271;DHT22;4673;53.458;9.940;2022-10-16T15:00:19;16.40;62.50
9271;DHT22;4673;53.458;9.940;2022-10-16T15:02:47;16.30;62.30
9271;DHT22;4673;53.458;9.940;2022-10-16T15:05:20;16.20;62.50
9271;DHT22;4673;53.458;9.940;2022-10-16T15:07:48;16.10;62.90
9271;DHT22;4673;53.458;9.940;2022-10-16T15:10:15;16.10;62.60
9271;DHT22;4673;53.458;9.940;2022-10-16T15:12:41;16.00;62.50
9271;DHT22;4673;53.458;9.940;2022-10-16T15:17:53;15.90;63.00
9271;DHT22;4673;53.458;9.940;2022-10-16T15:20:21;15.80;62.80
9271;DHT22;4673;53.458;9.940;2022-10-16T15:22:47;15.70;62.70
9271;DHT22;4673;53.458;9.940;2022-10-16T15:25:34;15.60;62.60
9271;DHT22;4673;53.458;9.940;2022-10-16T15:28:02;15.50;63.00
9271;DHT22;4673;53.458;9.940;2022-10-16T15:30:28;15.50;63.60
9271;DHT22;4673;53.458;9.940;2022-10-16T15:32:54;15.40;64.00
9271;DHT22;4673;53.458;9.940;2022-10-16T15:35:19;15.30;64.20
9271;DHT22;4673;53.458;9.940;2022-10-16T15:37:46;15.20;64.00
9271;DHT22;4673;53.458;9.940;2022-10-16T15:40:13;15.20;64.30
9271;DHT22;4673;53.458;9.940;2022-10-16T15:42:39;15.10;64.80
9271;DHT22;4673;53.458;9.940;2022-10-16T15:45:05;15.00;65.00
9271;DHT22;4673;53.458;9.940;2022-10-16T15:47:32;14.80;65.80
9271;DHT22;4673;53.458;9.940;2022-10-16T15:49:57;14.70;66.20
9271;DHT22;4673;53.458;9.940;2022-10-16T15:52:23;14.60;67.00
9271;DHT22;4673;53.458;9.940;2022-10-16T15:54:49;14.50;67.80
9271;DHT22;4673;53.458;9.940;2022-10-16T15:57:14;14.30;69.20
9271;DHT22;4673;53.458;9.940;2022-10-16T15:59:40;14.20;69.80
9271;DHT22;4673;53.458;9.940;2022-10-16T16:02:07;14.10;70.20
9271;DHT22;4673;53.458;9.940;2022-10-16T16:04:33;14.00;70.40
9271;DHT22;4673;53.458;9.940;2022-10-16T16:06:59;13.80;70.70
9271;DHT22;4673;53.458;9.940;2022-10-16T16:09:24;13.70;71.60
9271;DHT22;4673;53.458;9.940;2022-10-16T16:11:50;13.60;72.10
9271;DHT22;4673;53.458;9.940;2022-10-16T16:14:17;13.50;73.00
9271;DHT22;4673;53.458;9.940;2022-10-16T16:16:43;13.40;73.50
9271;DHT22;4673;53.458;9.940;2022-10-16T16:19:09;13.30;74.00
9271;DHT22;4673;53.458;9.940;2022-10-16T16:21:34;13.20;74.10
9271;DHT22;4673;53.458;9.940;2022-10-16T16:24:00;13.20;75.30
9271;DHT22;4673;53.458;9.940;2022-10-16T16:26:30;13.00;75.60
9271;DHT22;4673;53.458;9.940;2022-10-16T16:29:02;12.90;76.50
9271;DHT22;4673;53.458;9.940;2022-10-16T16:31:28;12.80;76.60
9271;DHT22;4673;53.458;9.940;2022-10-16T16:33:55;12.70;76.90
9271;DHT22;4673;53.458;9.940;2022-10-16T16:36:22;12.60;77.40
9271;DHT22;4673;53.458;9.940;2022-10-16T16:38:48;12.50;77.80
9271;DHT22;4673;53.458;9.940;2022-10-16T16:41:16;12.40;78.40
9271;DHT22;4673;53.458;9.940;2022-10-16T16:43:43;12.30;78.90
9271;DHT22;4673;53.458;9.940;2022-10-16T16:46:09;12.20;79.30
9271;DHT22;4673;53.458;9.940;2022-10-16T16:48:35;12.10;79.70
9271;DHT22;4673;53.458;9.940;2022-10-16T16:51:08;12.00;80.00
9271;DHT22;4673;53.458;9.940;2022-10-16T16:53:35;12.00;80.50
9271;DHT22;4673;53.458;9.940;2022-10-16T16:56:05;11.90;81.10
9271;DHT22;4673;53.458;9.940;2022-10-16T16:58:31;11.80;81.40
9271;DHT22;4673;53.458;9.940;2022-10-16T17:00:57;11.70;81.90
9271;DHT22;4673;53.458;9.940;2022-10-16T17:03:34;11.70;82.40
9271;DHT22;4673;53.458;9.940;2022-10-16T17:06:07;11.70;82.90
9271;DHT22;4673;53.458;9.940;2022-10-16T17:08:37;11.70;83.20
9271;DHT22;4673;53.458;9.940;2022-10-16T17:11:03;11.60;83.40
9271;DHT22;4673;53.458;9.940;2022-10-16T17:13:31;11.60;83.80
9271;DHT22;4673;53.458;9.940;2022-10-16T17:15:59;11.60;84.10
9271;DHT22;4673;53.458;9.940;2022-10-16T17:18:25;11.60;84.30
9271;DHT22;4673;53.458;9.940;2022-10-16T17:20:51;11.60;84.60
9271;DHT22;4673;53.458;9.940;2022-10-16T17:23:18;11.60;84.90
9271;DHT22;4673;53.458;9.940;2022-10-16T17:25:44;11.50;85.10
9271;DHT22;4673;53.458;9.940;2022-10-16T17:28:10;11.50;85.10
9271;DHT22;4673;53.458;9.940;2022-10-16T17:30:37;11.40;85.20
9271;DHT22;4673;53.458;9.940;2022-10-16T17:33:04;11.40;85.60
9271;DHT22;4673;53.458;9.940;2022-10-16T17:35:35;11.50;85.80
9271;DHT22;4673;53.458;9.940;2022-10-16T17:38:01;11.30;85.90
9271;DHT22;4673;53.458;9.940;2022-10-16T17:40:26;11.30;86.20
9271;DHT22;4673;53.458;9.940;2022-10-16T17:42:52;11.20;86.20
9271;DHT22;4673;53.458;9.940;2022-10-16T17:45:17;11.20;86.40
9271;DHT22;4673;53.458;9.940;2022-10-16T17:47:43;11.20;86.70
9271;DHT22;4673;53.458;9.940;2022-10-16T17:50:08;11.20;86.90
9271;DHT22;4673;53.458;9.940;2022-10-16T17:52:34;11.10;87.10
9271;DHT22;4673;53.458;9.940;2022-10-16T17:55:00;11.10;87.20
9271;DHT22;4673;53.458;9.940;2022-10-16T17:57:25;11.10;87.40
9271;DHT22;4673;53.458;9.940;2022-10-16T17:59:53;11.00;87.40